Time;durP1;ratioP1;P1;durP2;ratioP2;P2;SDS_P1;SDS_P2;PMS_P1;PMS_P2;Temp;Humidity;BMP_temperature;BMP_pressure;BME280_temperature;BME280_humidity;BME280_pressure;Samples;Min_cycle;Max_cycle;Signal;HPM_P1;HPM_P2
2024/03/18 00:02:27;;;;;;;19.20;17.30;;;1.60;12.80;;;;;;4803523;29;20435;-38
2024/03/18 00:04:56;;;;;;;18.67;16.98;;;1.60;18.30;;;;;;4813424;29;20550;-38
2024/03/18 00:07:22;;;;;;;19.25;17.60;;;1.60;16.10;;;;;;4810322;29;20677;-37
2024/03/18 00:09:48;;;;;;;19.17;17.45;;;1.50;17.20;;;;;;4804146;29;20718;-38
2024/03/18 00:12:14;;;;;;;19.13;17.10;;;1.40;19.60;;;;;;4805189;29;20200;-39
2024/03/18 00:14:43;;;;;;;19.50;17.70;;;1.40;29.20;;;;;;4806110;29;20609;-37
2024/03/18 00:17:09;;;;;;;19.70;17.80;;;1.40;42.30;;;;;;4801849;29;21271;-39
2024/03/18 00:19:35;;;;;;;18.85;16.90;;;1.40;59.00;;;;;;4801728;29;20557;-38
2024/03/18 00:22:01;;;;;;;18.27;16.70;;;1.30;74.10;;;;;;4807531;29;20202;-38
2024/03/18 00:24:26;;;;;;;17.93;16.40;;;1.30;84.50;;;;;;4811787;29;20268;-37
2024/03/18 00:26:52;;;;;;;18.53;16.83;;;1.20;96.20;;;;;;4803373;29;20265;-39
2024/03/18 00:29:17;;;;;;;18.63;16.63;;;1.20;99.90;;;;;;4812803;29;20213;-38
2024/03/18 00:31:44;;;;;;;18.67;16.93;;;1.20;99.90;;;;;;4806865;29;20768;-37
2024/03/18 00:34:10;;;;;;;17.50;16.00;;;1.20;99.90;;;;;;4799368;29;20218;-38
2024/03/18 00:36:35;;;;;;;17.43;16.00;;;1.20;99.90;;;;;;4806692;29;20666;-39
2024/03/18 00:39:01;;;;;;;19.20;17.20;;;1.20;99.90;;;;;;4811214;29;20611;-39
2024/03/18 00:41:45;;;;;;;17.23;15.73;;;1.20;99.90;;;;;;4785462;29;20650;-37
2024/03/18 00:44:14;;;;;;;17.60;16.00;;;1.20;99.90;;;;;;4812247;29;20205;-38
2024/03/18 00:46:41;;;;;;;17.10;15.63;;;1.20;99.90;;;;;;4805889;29;20174;-39
2024/03/18 00:49:07;;;;;;;18.42;16.92;;;1.10;99.90;;;;;;4802526;29;20205;-38
2024/03/18 00:51:33;;;;;;;18.17;16.40;;;1.10;99.90;;;;;;4809673;29;20182;-37
2024/03/18 00:53:59;;;;;;;16.73;15.32;;;1.10;99.90;;;;;;4805067;29;20463;-37
2024/03/18 00:56:25;;;;;;;16.07;14.87;;;1.00;99.90;;;;;;4803475;29;20181;-38
2024/03/18 00:58:50;;;;;;;16.97;15.40;;;1.00;99.90;;;;;;4808130;29;20442;-37
2024/03/18 01:01:16;;;;;;;16.23;14.70;;;1.00;99.90;;;;;;4804280;29;20198;-38
2024/03/18 01:03:42;;;;;;;15.03;13.83;;;1.00;99.90;;;;;;4805048;29;20190;-41
2024/03/18 01:06:08;;;;;;;15.60;14.20;;;1.00;99.90;;;;;;4804578;29;20193;-48
2024/03/18 01:08:34;;;;;;;16.30;14.90;;;1.00;99.90;;;;;;4806334;29;20214;-46
2024/03/18 01:11:00;;;;;;;15.80;14.30;;;0.90;99.90;;;;;;4812426;29;20426;-46
2024/03/18 01:13:31;;;;;;;16.40;14.83;;;0.90;99.90;;;;;;4810484;29;20280;-45
2024/03/18 01:15:58;;;;;;;16.67;15.15;;;0.80;99.90;;;;;;4812124;29;20434;-47
2024/03/18 01:18:24;;;;;;;16.02;14.73;;;0.80;99.90;;;;;;4804756;29;20196;-52
2024/03/18 01:20:50;;;;;;;17.30;15.60;;;0.80;99.90;;;;;;4809874;29;20205;-47
2024/03/18 01:23:15;;;;;;;16.07;14.57;;;0.70;99.90;;;;;;4798141;29;20202;-42
2024/03/18 01:25:41;;;;;;;16.97;15.37;;;0.70;99.90;;;;;;4802736;29;20698;-37
2024/03/18 01:28:07;;;;;;;16.05;14.68;;;0.70;99.90;;;;;;4801823;29;20214;-38
2024/03/18 01:30:33;;;;;;;16.77;15.13;;;0.70;99.90;;;;;;4811718;29;20194;-38
2024/03/18 01:32:59;;;;;;;16.67;15.20;;;0.70;99.90;;;;;;4810265;29;20197;-38
2024/03/18 01:35:25;;;;;;;15.07;13.93;;;0.60;99.90;;;;;;4811720;29;20272;-38
2024/03/18 01:37:50;;;;;;;18.38;16.00;;;0.60;99.90;;;;;;4806016;29;20598;-38
2024/03/18 01:40:17;;;;;;;15.93;14.63;;;0.60;99.90;;;;;;4798424;29;20285;-37
2024/03/18 01:42:44;;;;;;;15.40;14.23;;;0.60;99.90;;;;;;4806945;29;20182;-38
2024/03/18 01:45:10;;;;;;;15.77;14.38;;;0.60;99.90;;;;;;4803931;29;20537;-37
2024/03/18 01:47:38;;;;;;;15.32;14.02;;;0.60;99.90;;;;;;4810522;29;20383;-37
2024/03/18 01:50:04;;;;;;;15.40;13.80;;;0.60;99.90;;;;;;4804554;29;20531;-37
2024/03/18 01:52:30;;;;;;;22.20;15.45;;;0.60;99.90;;;;;;4798253;29;20194;-36
2024/03/18 01:54:56;;;;;;;14.70;13.50;;;0.60;99.90;;;;;;4808664;29;20253;-38
2024/03/18 01:57:24;;;;;;;14.68;13.48;;;0.60;99.90;;;;;;4794174;29;20826;-36
2024/03/18 01:59:50;;;;;;;15.93;14.43;;;0.50;99.90;;;;;;4803150;29;20319;-36
2024/03/18 02:02:15;;;;;;;15.65;14.32;;;0.50;99.90;;;;;;4808414;29;20199;-37
2024/03/18 02:04:41;;;;;;;17.27;13.80;;;0.50;99.90;;;;;;4803421;29;20189;-36
2024/03/18 02:07:24;;;;;;;16.00;14.50;;;0.40;99.90;;;;;;4807071;29;20660;-37
2024/03/18 02:09:50;;;;;;;16.00;14.60;;;0.40;99.90;;;;;;4804970;29;20228;-37
2024/03/18 02:12:16;;;;;;;15.23;13.90;;;0.40;99.90;;;;;;4810450;29;20189;-36
2024/03/18 02:14:45;;;;;;;15.98;14.52;;;0.40;99.90;;;;;;4806159;29;20471;-37
2024/03/18 02:17:12;;;;;;;14.55;13.43;;;0.40;99.90;;;;;;4805602;29;20309;-37
2024/03/18 02:19:39;;;;;;;14.65;13.25;;;0.40;99.90;;;;;;4808856;29;20227;-37
2024/03/18 02:22:06;;;;;;;14.70;13.35;;;0.40;99.90;;;;;;4808249;29;20223;-37
2024/03/18 02:24:32;;;;;;;15.95;14.82;;;0.40;99.90;;;;;;4799010;29;20194;-37
2024/03/18 02:27:08;;;;;;;20.83;18.77;;;0.40;99.90;;;;;;4809093;29;20193;-37
2024/03/18 02:29:34;;;;;;;20.92;18.83;;;0.30;99.90;;;;;;4808679;29;20224;-37
2024/03/18 02:32:00;;;;;;;19.80;17.73;;;0.40;99.90;;;;;;4811202;29;20200;-38
2024/03/18 02:34:25;;;;;;;19.47;17.67;;;0.30;99.90;;;;;;4800458;29;20953;-38
2024/03/18 02:36:54;;;;;;;16.50;15.00;;;0.30;99.90;;;;;;4810963;29;20188;-38
2024/03/18 02:39:24;;;;;;;16.60;15.20;;;0.30;99.90;;;;;;4801116;29;20238;-39
2024/03/18 02:41:50;;;;;;;15.57;14.07;;;0.20;99.90;;;;;;4811190;29;20177;-50
2024/03/18 02:44:16;;;;;;;14.93;13.63;;;0.20;99.90;;;;;;4800453;29;20650;-46
2024/03/18 02:46:42;;;;;;;15.70;14.10;;;0.10;99.90;;;;;;4810735;29;20196;-50
2024/03/18 02:49:08;;;;;;;14.00;12.80;;;0.10;99.90;;;;;;4806501;29;20217;-38
2024/03/18 02:51:33;;;;;;;14.50;13.10;;;0.10;99.90;;;;;;4808979;29;20589;-37
2024/03/18 02:53:59;;;;;;;16.13;14.33;;;0.10;99.90;;;;;;4802639;29;20189;-38
2024/03/18 02:56:25;;;;;;;13.70;12.30;;;0.00;99.90;;;;;;4808400;29;20185;-37
2024/03/18 02:58:52;;;;;;;14.90;13.57;;;0.00;99.90;;;;;;4810833;29;20955;-37
2024/03/18 03:01:17;;;;;;;14.73;13.10;;;0.00;99.90;;;;;;4802445;29;20189;-37
2024/03/18 03:03:43;;;;;;;15.10;13.50;;;-0.10;99.90;;;;;;4783094;29;20689;-39
2024/03/18 03:06:09;;;;;;;14.50;13.40;;;-0.10;99.90;;;;;;4800701;29;20657;-39
2024/03/18 03:08:34;;;;;;;14.43;13.33;;;-0.10;99.90;;;;;;4797687;29;20232;-38
2024/03/18 03:11:06;;;;;;;15.00;13.60;;;-0.10;99.90;;;;;;4797094;29;20486;-37
2024/03/18 03:13:33;;;;;;;14.70;13.35;;;-0.10;99.90;;;;;;4801501;29;20261;-38
2024/03/18 03:15:59;;;;;;;14.02;13.02;;;-0.10;99.90;;;;;;4802908;29;20205;-38
2024/03/18 03:18:25;;;;;;;15.17;13.57;;;-0.10;99.90;;;;;;4808061;29;20534;-37
2024/03/18 03:20:54;;;;;;;15.33;13.93;;;-0.10;99.90;;;;;;4803662;29;20806;-37
2024/03/18 03:23:20;;;;;;;15.20;13.93;;;-0.20;99.90;;;;;;4810200;29;20193;-37
2024/03/18 03:25:48;;;;;;;15.07;13.67;;;-0.20;99.90;;;;;;4805294;29;20196;-36
2024/03/18 03:28:14;;;;;;;13.60;12.40;;;-0.10;99.90;;;;;;4799289;29;20413;-37
2024/03/18 03:30:40;;;;;;;13.93;12.80;;;-0.10;99.90;;;;;;4806003;29;20200;-37
2024/03/18 03:33:05;;;;;;;14.40;13.10;;;-0.10;99.90;;;;;;4801887;29;20212;-37
2024/03/18 03:35:31;;;;;;;14.70;13.50;;;-0.10;99.90;;;;;;4808274;29;20208;-38
2024/03/18 03:37:57;;;;;;;14.30;12.93;;;-0.10;99.90;;;;;;4812721;29;20255;-38
2024/03/18 03:40:23;;;;;;;14.13;13.00;;;-0.20;99.90;;;;;;4800610;29;20561;-38
2024/03/18 03:42:48;;;;;;;14.37;13.20;;;-0.20;99.90;;;;;;4799655;29;20209;-44
2024/03/18 03:45:14;;;;;;;13.57;12.50;;;-0.20;99.90;;;;;;4814016;29;20233;-49
2024/03/18 03:47:40;;;;;;;15.43;13.80;;;-0.20;99.90;;;;;;4802896;29;20500;-51
2024/03/18 03:50:08;;;;;;;12.77;11.87;;;-0.20;99.90;;;;;;4806665;29;20955;-47
2024/03/18 03:52:34;;;;;;;14.15;12.75;;;-0.20;99.90;;;;;;4808430;29;20579;-50
2024/03/18 03:55:00;;;;;;;13.13;12.13;;;-0.20;99.90;;;;;;4807578;29;20571;-47
2024/03/18 03:57:25;;;;;;;14.43;13.03;;;-0.30;99.90;;;;;;4811595;29;20197;-47
2024/03/18 03:59:51;;;;;;;13.03;11.90;;;-0.30;99.90;;;;;;4799721;29;20547;-53
2024/03/18 04:02:17;;;;;;;13.87;12.40;;;-0.30;99.90;;;;;;4799208;29;20222;-46
2024/03/18 04:04:43;;;;;;;15.15;12.88;;;-0.30;99.90;;;;;;4811101;29;20198;-51
2024/03/18 04:07:08;;;;;;;12.73;11.83;;;-0.30;99.90;;;;;;4806512;29;20997;-52
2024/03/18 04:09:34;;;;;;;14.33;13.13;;;-0.30;99.90;;;;;;4812504;29;20795;-51
2024/03/18 04:11:59;;;;;;;13.67;12.60;;;-0.30;99.90;;;;;;4809229;29;20894;-51
2024/03/18 04:14:25;;;;;;;14.37;13.07;;;-0.30;99.90;;;;;;4812586;29;20275;-49
2024/03/18 04:16:51;;;;;;;13.17;12.07;;;-0.30;99.90;;;;;;4809143;29;20772;-51
2024/03/18 04:19:16;;;;;;;13.93;12.73;;;-0.30;99.90;;;;;;4806670;29;20201;-49
2024/03/18 04:21:42;;;;;;;14.33;12.90;;;-0.30;99.90;;;;;;4811315;29;20603;-47
2024/03/18 04:24:08;;;;;;;13.87;12.67;;;-0.30;99.90;;;;;;4812597;29;20734;-46
2024/03/18 04:26:35;;;;;;;14.65;13.40;;;-0.40;99.90;;;;;;4806812;29;20249;-48
2024/03/18 04:29:00;;;;;;;13.60;12.23;;;-0.40;99.90;;;;;;4813031;29;20228;-48
2024/03/18 04:31:26;;;;;;;14.40;13.10;;;-0.40;99.90;;;;;;4807422;29;20253;-45
2024/03/18 04:33:52;;;;;;;13.93;12.70;;;-0.40;99.90;;;;;;4804367;29;20662;-49
2024/03/18 04:36:17;;;;;;;14.10;12.77;;;-0.40;99.90;;;;;;4803967;29;20193;-52
2024/03/18 04:38:43;;;;;;;14.20;13.00;;;-0.50;99.90;;;;;;4812597;29;20201;-49
2024/03/18 04:41:09;;;;;;;13.33;12.30;;;-0.50;99.90;;;;;;4804540;29;20244;-49
2024/03/18 04:43:35;;;;;;;14.23;12.98;;;-0.40;99.90;;;;;;4812862;29;20405;-46
2024/03/18 04:46:01;;;;;;;14.23;13.03;;;-0.50;99.90;;;;;;4807963;29;20205;-50
2024/03/18 04:48:26;;;;;;;15.50;13.37;;;-0.50;99.90;;;;;;4809059;29;20224;-38
2024/03/18 04:50:52;;;;;;;15.87;14.57;;;-0.40;99.90;;;;;;4809128;29;20213;-39
2024/03/18 04:53:18;;;;;;;14.97;13.70;;;-0.50;99.90;;;;;;4811996;29;20368;-38
2024/03/18 04:55:43;;;;;;;14.43;13.23;;;-0.50;99.90;;;;;;4805561;29;20193;-37
2024/03/18 04:58:09;;;;;;;14.03;12.63;;;-0.50;99.90;;;;;;4805844;29;20279;-50
2024/03/18 05:00:34;;;;;;;13.90;12.70;;;-0.50;99.90;;;;;;4807242;29;20284;-44
2024/03/18 05:03:00;;;;;;;14.77;13.70;;;-0.50;99.90;;;;;;4798853;29;20851;-51
2024/03/18 05:05:26;;;;;;;14.73;13.50;;;-0.50;99.90;;;;;;4801388;29;20374;-51
2024/03/18 05:07:52;;;;;;;13.80;12.50;;;-0.60;99.90;;;;;;4810662;29;20858;-50
2024/03/18 05:10:21;;;;;;;15.77;14.18;;;-0.60;99.90;;;;;;4801489;29;20462;-44
2024/03/18 05:12:47;;;;;;;13.65;12.45;;;-0.60;99.90;;;;;;4804398;29;20653;-45
2024/03/18 05:15:13;;;;;;;13.25;12.15;;;-0.60;99.90;;;;;;4811675;29;20269;-44
2024/03/18 05:17:39;;;;;;;13.50;12.10;;;-0.60;99.90;;;;;;4800024;29;20656;-45
2024/03/18 05:20:11;;;;;;;13.23;12.03;;;-0.60;99.90;;;;;;4807995;29;20650;-36
2024/03/18 05:22:37;;;;;;;12.85;11.85;;;-0.60;99.90;;;;;;4805891;29;20185;-36
2024/03/18 05:25:06;;;;;;;12.77;11.70;;;-0.60;99.90;;;;;;4804929;29;20678;-35
2024/03/18 05:27:32;;;;;;;15.23;13.80;;;-0.60;99.90;;;;;;4805581;29;20189;-37
2024/03/18 05:29:58;;;;;;;13.87;12.50;;;-0.60;99.90;;;;;;4803854;29;20191;-35
2024/03/18 05:32:24;;;;;;;14.65;12.88;;;-0.70;99.90;;;;;;4804828;29;20502;-36
2024/03/18 05:34:49;;;;;;;14.23;12.90;;;-0.60;99.90;;;;;;4805171;29;20200;-36
2024/03/18 05:37:16;;;;;;;15.00;13.60;;;-0.70;99.90;;;;;;4792564;29;20258;-39
2024/03/18 05:39:42;;;;;;;14.35;12.95;;;-0.70;99.90;;;;;;4806161;29;20673;-37
2024/03/18 05:42:07;;;;;;;14.50;13.13;;;-0.70;99.90;;;;;;4804958;29;20326;-36
2024/03/18 05:44:33;;;;;;;13.03;11.93;;;-0.70;99.90;;;;;;4785480;29;20545;-45
2024/03/18 05:46:59;;;;;;;16.87;13.40;;;-0.60;99.90;;;;;;4804712;29;20661;-48
2024/03/18 05:49:26;;;;;;;16.17;14.32;;;-0.70;99.90;;;;;;4810932;29;20299;-47
2024/03/18 05:51:52;;;;;;;13.98;12.77;;;-0.70;99.90;;;;;;4806121;29;20186;-45
2024/03/18 05:54:18;;;;;;;13.63;12.52;;;-0.60;99.90;;;;;;4809842;29;20323;-47
2024/03/18 05:56:44;;;;;;;13.15;12.02;;;-0.60;99.90;;;;;;4805857;29;20200;-49
2024/03/18 05:59:10;;;;;;;13.80;12.57;;;-0.60;99.90;;;;;;4807741;29;20669;-49
2024/03/18 06:01:37;;;;;;;16.70;12.10;;;-0.60;99.90;;;;;;4801625;29;20201;-47
2024/03/18 06:04:04;;;;;;;15.20;13.65;;;-0.60;99.90;;;;;;4809672;29;20192;-49
2024/03/18 06:06:29;;;;;;;13.95;12.60;;;-0.50;99.90;;;;;;4810014;29;20644;-38
2024/03/18 06:08:55;;;;;;;13.43;12.03;;;-0.50;99.90;;;;;;4810638;29;20219;-37
2024/03/18 06:11:20;;;;;;;14.03;12.63;;;-0.40;99.90;;;;;;4808869;29;20193;-37
2024/03/18 06:13:46;;;;;;;14.07;12.87;;;-0.40;99.90;;;;;;4806465;29;20651;-38
2024/03/18 06:16:12;;;;;;;13.50;12.10;;;-0.30;99.90;;;;;;4802579;29;20279;-38
2024/03/18 06:18:37;;;;;;;13.10;11.80;;;-0.30;99.90;;;;;;4777206;29;20223;-38
2024/03/18 06:21:03;;;;;;;14.27;12.97;;;-0.20;99.90;;;;;;4800346;29;20258;-37
2024/03/18 06:23:33;;;;;;;13.63;12.33;;;-0.20;99.90;;;;;;4798592;29;20191;-37
2024/03/18 06:25:58;;;;;;;15.10;13.70;;;-0.20;99.90;;;;;;4808377;29;21058;-37
2024/03/18 06:28:25;;;;;;;14.13;12.83;;;-0.10;99.90;;;;;;4801640;29;20216;-37
2024/03/18 06:30:52;;;;;;;14.88;13.40;;;-0.10;99.90;;;;;;4808473;29;20213;-37
2024/03/18 06:33:18;;;;;;;12.25;10.95;;;0.00;99.90;;;;;;4803380;29;20189;-37
2024/03/18 06:35:47;;;;;;;17.70;13.45;;;0.00;99.90;;;;;;4802612;29;20289;-38
2024/03/18 06:38:13;;;;;;;13.50;12.30;;;0.10;99.90;;;;;;4804859;29;20558;-38
2024/03/18 06:40:41;;;;;;;12.70;11.27;;;0.10;99.90;;;;;;4800202;29;20194;-37
2024/03/18 06:43:07;;;;;;;12.77;11.45;;;0.20;99.90;;;;;;4804918;29;20545;-37
2024/03/18 06:45:34;;;;;;;13.70;12.40;;;0.20;99.90;;;;;;4805433;29;20211;-37
2024/03/18 06:48:02;;;;;;;14.50;13.15;;;0.30;99.90;;;;;;4808438;29;20303;-37
2024/03/18 06:50:29;;;;;;;17.70;12.80;;;0.30;99.90;;;;;;4782499;29;20478;-37
2024/03/18 06:52:55;;;;;;;14.98;13.05;;;0.40;99.90;;;;;;4803910;29;20645;-38
2024/03/18 06:55:20;;;;;;;18.43;12.60;;;0.40;99.90;;;;;;4803097;29;20195;-37
2024/03/18 06:57:46;;;;;;;14.70;13.20;;;0.50;99.90;;;;;;4803274;29;20453;-37
2024/03/18 07:00:12;;;;;;;18.63;13.97;;;0.60;99.90;;;;;;4804772;29;20965;-37
2024/03/18 07:02:38;;;;;;;13.95;12.70;;;0.70;99.90;;;;;;4804591;29;20596;-37
2024/03/18 07:05:04;;;;;;;14.60;12.97;;;0.80;99.90;;;;;;4804525;29;20208;-37
2024/03/18 07:07:30;;;;;;;15.85;13.95;;;0.90;99.90;;;;;;4809422;29;20473;-37
2024/03/18 07:09:55;;;;;;;14.80;13.40;;;1.10;99.90;;;;;;4788138;29;20788;-37
2024/03/18 07:12:21;;;;;;;15.87;14.40;;;1.20;99.90;;;;;;4809823;29;20196;-38
2024/03/18 07:14:47;;;;;;;15.30;13.70;;;1.30;99.90;;;;;;4807192;29;20241;-38
2024/03/18 07:17:13;;;;;;;14.97;13.47;;;1.40;99.90;;;;;;4808816;29;20785;-37
2024/03/18 07:19:39;;;;;;;15.75;14.05;;;1.60;94.40;;;;;;4808396;29;20190;-37
2024/03/18 07:22:06;;;;;;;20.10;13.93;;;1.70;85.40;;;;;;4813316;29;20217;-38
2024/03/18 07:24:31;;;;;;;16.85;15.05;;;1.80;64.40;;;;;;4809463;29;20237;-37
2024/03/18 07:26:57;;;;;;;16.53;15.00;;;1.90;42.00;;;;;;4805165;29;20664;-38
2024/03/18 07:29:24;;;;;;;17.43;14.93;;;2.00;36.10;;;;;;4811714;29;20212;-38
2024/03/18 07:31:56;;;;;;;17.65;15.48;;;2.10;27.30;;;;;;4814222;29;20721;-39
2024/03/18 07:34:24;;;;;;;16.00;14.40;;;2.20;22.60;;;;;;4802431;29;20251;-38
2024/03/18 07:36:51;;;;;;;16.42;14.82;;;2.20;6.20;;;;;;4812890;29;20194;-38
2024/03/18 07:39:17;;;;;;;16.42;14.82;;;2.30;5.60;;;;;;4803573;29;20286;-38
2024/03/18 07:41:42;;;;;;;16.40;14.67;;;2.40;1.00;;;;;;4813683;29;21083;-38
2024/03/18 07:44:08;;;;;;;17.00;14.40;;;2.50;1.00;;;;;;4808466;29;20342;-37
2024/03/18 07:46:34;;;;;;;14.33;13.00;;;2.60;1.00;;;;;;4813438;29;20430;-38
2024/03/18 07:48:59;;;;;;;14.97;13.40;;;2.70;1.00;;;;;;4806956;29;20218;-37
2024/03/18 07:51:26;;;;;;;15.50;14.20;;;2.70;1.00;;;;;;4809763;29;20190;-52
2024/03/18 07:53:52;;;;;;;14.30;12.80;;;2.90;1.00;;;;;;4807879;29;20489;-47
2024/03/18 07:56:17;;;;;;;17.13;14.30;;;3.00;1.00;;;;;;4804360;29;20202;-51
2024/03/18 07:58:43;;;;;;;15.53;14.23;;;3.10;1.00;;;;;;4809269;29;20269;-48
2024/03/18 08:01:11;;;;;;;13.93;12.83;;;3.20;1.00;;;;;;4796851;29;20214;-45
2024/03/18 08:03:37;;;;;;;15.45;14.05;;;3.40;1.00;;;;;;4807507;29;20562;-52
2024/03/18 08:06:10;;;;;;;15.05;13.95;;;3.50;1.00;;;;;;4813477;29;20498;-51
2024/03/18 08:08:36;;;;;;;14.70;13.20;;;3.70;1.00;;;;;;4811587;29;20293;-49
2024/03/18 08:11:02;;;;;;;14.50;13.20;;;3.90;99.90;;;;;;4813361;29;20190;-44
2024/03/18 08:13:27;;;;;;;15.37;14.03;;;4.00;68.60;;;;;;4812342;29;20269;-43
2024/03/18 08:15:53;;;;;;;14.63;13.37;;;4.20;1.00;;;;;;4813081;29;20271;-44
2024/03/18 08:18:18;;;;;;;14.53;13.30;;;4.40;1.00;;;;;;4813066;29;20197;-49
2024/03/18 08:20:44;;;;;;;14.00;12.80;;;4.70;1.00;;;;;;4803239;29;21087;-49
2024/03/18 08:23:10;;;;;;;13.33;12.33;;;5.00;99.90;;;;;;4812780;29;20574;-42
2024/03/18 08:25:35;;;;;;;12.50;11.60;;;5.40;99.90;;;;;;4800113;29;20198;-49
2024/03/18 08:28:01;;;;;;;13.43;12.43;;;5.80;1.00;;;;;;4807629;29;20225;-51
2024/03/18 08:30:27;;;;;;;13.30;12.40;;;6.10;1.00;;;;;;4803978;29;20281;-52
2024/03/18 08:32:52;;;;;;;11.50;10.70;;;6.50;99.90;;;;;;4812759;29;20198;-44
2024/03/18 08:35:18;;;;;;;11.50;10.80;;;7.00;99.90;;;;;;4807926;29;20194;-48
2024/03/18 08:37:44;;;;;;;10.83;10.20;;;7.50;1.00;;;;;;4812987;29;20194;-48
2024/03/18 08:40:10;;;;;;;10.97;10.27;;;8.00;1.00;;;;;;4810002;29;20245;-51
2024/03/18 08:42:36;;;;;;;10.80;10.10;;;8.40;1.00;;;;;;4812867;29;20190;-48
2024/03/18 08:45:02;;;;;;;11.10;10.40;;;9.00;1.00;;;;;;4803429;29;20879;-38
2024/03/18 08:47:28;;;;;;;12.03;11.23;;;9.60;1.00;;;;;;4812268;29;20435;-44
2024/03/18 08:49:53;;;;;;;11.83;10.90;;;10.10;1.00;;;;;;4806379;29;20270;-47
2024/03/18 08:52:19;;;;;;;11.60;10.87;;;10.60;1.00;;;;;;4807610;29;20552;-51
2024/03/18 08:54:47;;;;;;;11.90;11.17;;;10.90;1.00;;;;;;4801190;29;20191;-50
2024/03/18 08:57:12;;;;;;;11.90;11.10;;;11.10;1.00;;;;;;4812010;29;20423;-49
2024/03/18 08:59:38;;;;;;;12.00;11.30;;;11.60;99.90;;;;;;4789638;29;20455;-51
2024/03/18 09:02:04;;;;;;;11.33;10.73;;;12.10;99.90;;;;;;4800583;29;20613;-39
2024/03/18 09:04:30;;;;;;;11.43;10.77;;;12.30;99.90;;;;;;4810912;29;20788;-39
2024/03/18 09:06:55;;;;;;;11.10;10.50;;;12.50;99.90;;;;;;4807907;29;21265;-37
2024/03/18 09:09:21;;;;;;;11.90;11.10;;;13.00;99.90;;;;;;4812152;29;20226;-37
2024/03/18 09:11:47;;;;;;;13.20;12.30;;;13.50;99.90;;;;;;4795710;29;20702;-38
2024/03/18 09:14:13;;;;;;;14.03;13.23;;;13.80;99.90;;;;;;4812137;29;20670;-40
2024/03/18 09:16:40;;;;;;;13.47;12.50;;;14.20;99.90;;;;;;4808642;29;20438;-37
2024/03/18 09:19:07;;;;;;;13.53;12.57;;;14.70;99.90;;;;;;4812093;29;20491;-41
2024/03/18 09:21:33;;;;;;;14.40;13.20;;;14.70;99.90;;;;;;4804026;29;20603;-38
2024/03/18 09:23:58;;;;;;;13.30;12.40;;;14.90;99.90;;;;;;4801797;29;20225;-39
2024/03/18 09:26:24;;;;;;;13.83;12.93;;;15.30;99.90;;;;;;4810276;29;20185;-41
2024/03/18 09:28:50;;;;;;;13.80;12.80;;;15.60;99.90;;;;;;4812039;29;20213;-42
2024/03/18 09:31:16;;;;;;;13.77;12.87;;;15.70;99.90;;;;;;4801884;29;20432;-40
2024/03/18 09:33:42;;;;;;;14.20;13.30;;;15.50;99.90;;;;;;4794784;29;20957;-43
2024/03/18 09:36:08;;;;;;;13.47;12.63;;;16.00;99.90;;;;;;4802979;29;20646;-38
2024/03/18 09:38:34;;;;;;;13.50;12.60;;;16.50;99.90;;;;;;4811865;29;20194;-39
2024/03/18 09:41:04;;;;;;;13.50;12.50;;;16.60;99.90;;;;;;4783595;29;20951;-37
2024/03/18 09:43:32;;;;;;;13.43;12.53;;;16.90;99.90;;;;;;4812350;29;20208;-43
2024/03/18 09:45:59;;;;;;;14.93;14.00;;;17.20;99.90;;;;;;4804708;29;20432;-43
2024/03/18 09:48:26;;;;;;;13.60;12.70;;;17.50;99.90;;;;;;4801969;29;20485;-39
2024/03/18 09:50:52;;;;;;;13.93;12.90;;;17.60;99.90;;;;;;4806904;29;20858;-40
2024/03/18 09:53:17;;;;;;;13.27;12.43;;;17.20;99.90;;;;;;4804798;29;20438;-41
2024/03/18 09:55:43;;;;;;;13.43;12.50;;;17.30;99.90;;;;;;4809003;29;20472;-39
2024/03/18 09:58:14;;;;;;;14.07;13.07;;;17.30;99.90;;;;;;4807598;29;20201;-39
2024/03/18 10:00:40;;;;;;;13.43;12.50;;;17.20;99.90;;;;;;4808062;29;20478;-41
2024/03/18 10:03:17;;;;;;;13.43;12.57;;;17.80;99.90;;;;;;4799269;29;21024;-41
2024/03/18 10:05:44;;;;;;;14.20;13.30;;;18.10;99.90;;;;;;4805862;29;20654;-42
2024/03/18 10:08:14;;;;;;;12.13;11.23;;;17.90;99.90;;;;;;4795173;29;20472;-41
2024/03/18 10:10:40;;;;;;;13.43;12.50;;;18.20;99.90;;;;;;4784534;29;20795;-39
2024/03/18 10:13:08;;;;;;;14.00;13.10;;;18.20;99.90;;;;;;4804494;29;20427;-41
2024/03/18 10:15:34;;;;;;;13.77;12.87;;;18.40;99.90;;;;;;4810489;29;20197;-37
2024/03/18 10:18:00;;;;;;;13.50;12.70;;;18.70;99.90;;;;;;4810798;29;20435;-40
2024/03/18 10:20:26;;;;;;;14.30;13.40;;;19.00;99.90;;;;;;4805665;29;20450;-40
2024/03/18 10:22:52;;;;;;;14.00;13.00;;;18.90;99.90;;;;;;4793200;29;20444;-41
2024/03/18 10:25:24;;;;;;;12.20;11.40;;;18.70;99.90;;;;;;4808606;29;20205;-43
2024/03/18 10:27:53;;;;;;;13.07;12.17;;;18.70;99.90;;;;;;4797230;29;21497;-39
2024/03/18 10:30:19;;;;;;;12.43;11.60;;;18.90;99.90;;;;;;4802926;29;20742;-44
2024/03/18 10:32:45;;;;;;;11.67;10.97;;;19.20;99.90;;;;;;4802323;29;20450;-42
2024/03/18 10:35:30;;;;;;;12.00;11.30;;;19.60;99.90;;;;;;4811204;29;20190;-43
2024/03/18 10:38:04;;;;;;;12.83;12.07;;;19.50;99.90;;;;;;4792610;29;20815;-40
2024/03/18 10:40:35;;;;;;;12.50;11.80;;;19.30;99.90;;;;;;4801227;29;20773;-39
2024/03/18 10:43:13;;;;;;;12.87;12.10;;;19.70;99.90;;;;;;4798396;29;20439;-42
2024/03/18 10:45:48;;;;;;;11.27;10.60;;;19.90;99.90;;;;;;4810547;29;20438;-41
2024/03/18 10:48:17;;;;;;;11.37;10.70;;;20.00;99.90;;;;;;4800782;29;20822;-39
2024/03/18 10:50:45;;;;;;;11.83;11.23;;;20.50;99.90;;;;;;4810568;29;20472;-37
2024/03/18 10:53:17;;;;;;;12.20;11.40;;;20.60;99.90;;;;;;4802422;29;20982;-37
2024/03/18 10:55:44;;;;;;;11.20;10.60;;;20.20;99.90;;;;;;4810412;29;20424;-39
2024/03/18 10:58:10;;;;;;;11.87;11.17;;;19.60;99.90;;;;;;4799524;29;20794;-38
2024/03/18 11:00:36;;;;;;;11.50;10.90;;;19.70;99.90;;;;;;4805080;29;20515;-41
2024/03/18 11:03:14;;;;;;;11.50;10.83;;;20.00;99.90;;;;;;4801174;29;20870;-38
2024/03/18 11:05:51;;;;;;;12.03;11.43;;;19.70;99.90;;;;;;4810484;29;20465;-38
2024/03/18 11:08:19;;;;;;;11.03;10.47;;;19.90;99.90;;;;;;4806434;29;20520;-37
2024/03/18 11:10:45;;;;;;;11.33;10.63;;;20.00;99.90;;;;;;4811017;29;20419;-37
2024/03/18 11:13:19;;;;;;;10.90;10.30;;;20.00;99.90;;;;;;4808287;29;20915;-39
2024/03/18 11:15:48;;;;;;;10.70;10.10;;;19.90;99.90;;;;;;4810990;29;20809;-41
2024/03/18 11:18:25;;;;;;;10.80;10.20;;;20.00;99.90;;;;;;4810396;29;21270;-37
2024/03/18 11:20:53;;;;;;;12.00;11.30;;;20.10;99.90;;;;;;4809896;29;20427;-39
2024/03/18 11:23:21;;;;;;;12.33;11.50;;;20.40;99.90;;;;;;4796263;29;20458;-37
2024/03/18 11:25:54;;;;;;;11.90;11.20;;;20.70;99.90;;;;;;4810852;29;20920;-39
2024/03/18 11:28:21;;;;;;;11.60;11.00;;;21.00;99.90;;;;;;4798603;29;20499;-37
2024/03/18 11:30:49;;;;;;;11.87;11.03;;;20.80;99.90;;;;;;4801677;29;20504;-38
2024/03/18 11:33:15;;;;;;;12.17;11.47;;;21.10;99.90;;;;;;4801450;29;20502;-40
2024/03/18 11:35:42;;;;;;;11.73;11.13;;;21.30;99.90;;;;;;4810316;29;21240;-38
2024/03/18 11:38:16;;;;;;;12.87;12.10;;;21.40;99.90;;;;;;4797582;29;20475;-39
2024/03/18 11:40:41;;;;;;;11.83;11.13;;;21.50;99.90;;;;;;4806323;29;20455;-37
2024/03/18 11:43:08;;;;;;;12.20;11.53;;;21.50;99.90;;;;;;4805954;29;20446;-37
2024/03/18 11:45:33;;;;;;;12.33;11.57;;;22.10;99.90;;;;;;4810278;29;20558;-36
2024/03/18 11:48:05;;;;;;;11.67;10.97;;;22.30;99.90;;;;;;4794863;29;20799;-37
2024/03/18 11:50:38;;;;;;;12.20;11.40;;;22.00;99.90;;;;;;4804613;29;20223;-37
2024/03/18 11:53:07;;;;;;;12.70;12.00;;;21.90;99.90;;;;;;4809754;29;20522;-37
2024/03/18 11:55:37;;;;;;;12.00;11.40;;;22.10;99.90;;;;;;4810188;29;20510;-40
2024/03/18 11:58:11;;;;;;;11.80;11.20;;;22.20;99.90;;;;;;4809205;29;21047;-36
2024/03/18 12:00:36;;;;;;;12.77;12.07;;;22.50;99.90;;;;;;4810617;29;20462;-38
2024/03/18 12:03:05;;;;;;;11.80;11.10;;;22.60;99.90;;;;;;4804357;29;20877;-39
2024/03/18 12:05:34;;;;;;;12.40;11.70;;;22.40;99.90;;;;;;4810398;29;20272;-40
2024/03/18 12:08:00;;;;;;;12.70;12.00;;;23.00;99.90;;;;;;4804445;29;20888;-37
2024/03/18 12:10:26;;;;;;;11.47;10.70;;;22.30;99.90;;;;;;4812606;29;20464;-37
2024/03/18 12:12:53;;;;;;;12.03;11.30;;;22.50;99.90;;;;;;4809502;29;20836;-39
2024/03/18 12:15:18;;;;;;;12.50;11.80;;;22.40;99.90;;;;;;4810194;29;20857;-37
2024/03/18 12:17:45;;;;;;;11.60;10.90;;;22.40;99.90;;;;;;4803559;29;20433;-38
2024/03/18 12:20:27;;;;;;;12.67;11.97;;;22.50;99.90;;;;;;4810488;29;20665;-40
2024/03/18 12:23:02;;;;;;;12.27;11.37;;;22.80;99.90;;;;;;4810107;29;20832;-38
2024/03/18 12:28:32;;;;;;;11.90;11.30;;;23.10;99.90;;;;;;4808372;29;20469;-41
2024/03/18 12:31:04;;;;;;;11.33;10.63;;;22.60;99.90;;;;;;4805981;29;20512;-40
2024/03/18 12:33:31;;;;;;;11.60;11.00;;;22.90;99.90;;;;;;4800984;29;20435;-38
2024/03/18 12:35:56;;;;;;;12.40;11.60;;;22.80;99.90;;;;;;4812503;29;20431;-37